createdAt,value
2022-11-29T00:02:45.312Z,25.00
2022-11-29T00:07:45.040Z,25.70
2022-11-29T00:12:44.921Z,28.50
2022-11-29T00:17:44.806Z,27.90
2022-11-29T00:22:44.803Z,32.70
2022-11-29T00:27:44.755Z,33.40
2022-11-29T00:32:44.740Z,37.10
2022-11-29T00:37:44.676Z,38.40
2022-11-29T00:42:44.631Z,40.20
2022-11-29T00:47:44.552Z,45.10
2022-11-29T00:52:44.578Z,46.00
2022-11-29T00:57:44.541Z,46.60
2022-11-29T01:02:44.418Z,42.50
2022-11-29T01:07:44.526Z,41.70
2022-11-29T01:12:44.243Z,42.10
2022-11-29T01:17:44.196Z,40.30
2022-11-29T01:22:44.229Z,38.40
2022-11-29T01:27:44.103Z,37.70
2022-11-29T01:32:44.155Z,38.00
2022-11-29T01:37:43.981Z,38.80
2022-11-29T01:42:43.996Z,39.70
2022-11-29T01:47:43.936Z,37.30
2022-11-29T01:52:43.817Z,38.20
2022-11-29T01:57:43.813Z,37.90
2022-11-29T02:02:43.770Z,32.00
2022-11-29T02:07:43.704Z,32.20
2022-11-29T02:12:43.569Z,33.70
2022-11-29T02:17:43.490Z,34.30
2022-11-29T02:22:43.497Z,32.10
2022-11-29T02:27:43.386Z,34.10
2022-11-29T02:32:43.324Z,36.70
2022-11-29T02:37:43.281Z,35.90
2022-11-29T02:42:43.197Z,35.10
2022-11-29T02:47:43.145Z,37.00
2022-11-29T02:52:43.138Z,36.80
2022-11-29T02:57:43.049Z,37.30
2022-11-29T03:02:43.042Z,39.40
2022-11-29T03:07:42.949Z,51.20
2022-11-29T03:12:42.883Z,49.90
2022-11-29T03:17:42.921Z,45.30
2022-11-29T03:22:42.810Z,50.90
2022-11-29T03:27:42.806Z,42.40
2022-11-29T03:32:42.736Z,44.80
2022-11-29T03:37:42.590Z,38.30
2022-11-29T03:42:42.581Z,36.60
2022-11-29T03:47:44.481Z,34.90
2022-11-29T03:52:42.450Z,37.90
2022-11-29T03:57:42.389Z,45.00
2022-11-29T04:02:42.405Z,30.60
2022-11-29T04:07:42.334Z,31.60
2022-11-29T04:12:42.204Z,30.40
2022-11-29T04:17:42.145Z,32.70
2022-11-29T04:22:42.075Z,32.00
2022-11-29T04:27:42.036Z,34.90
2022-11-29T04:32:41.999Z,38.70
2022-11-29T04:37:41.940Z,56.20
2022-11-29T04:42:42.923Z,48.10
2022-11-29T04:47:41.803Z,51.50
2022-11-29T04:52:41.751Z,49.30
2022-11-29T04:57:41.826Z,52.80
2022-11-29T05:02:41.796Z,53.00
2022-11-29T05:07:41.619Z,50.80
2022-11-29T05:12:41.527Z,52.60
2022-11-29T05:17:41.507Z,45.10
2022-11-29T05:22:41.408Z,44.10
2022-11-29T05:28:51.706Z,41.70
2022-11-29T05:33:51.670Z,41.60
2022-11-29T05:38:51.682Z,40.50
2022-11-29T05:43:51.562Z,40.40
2022-11-29T05:48:51.525Z,35.90
2022-11-29T05:53:51.454Z,35.40
2022-11-29T05:58:51.410Z,34.20
2022-11-29T06:03:51.361Z,35.10
2022-11-29T06:08:51.299Z,34.40
2022-11-29T06:13:51.235Z,35.50
2022-11-29T06:18:51.155Z,31.60
2022-11-29T06:23:51.109Z,34.80
2022-11-29T06:28:51.127Z,37.10
2022-11-29T06:33:51.087Z,31.00
2022-11-29T06:38:50.976Z,29.00
2022-11-29T06:43:50.929Z,30.50
2022-11-29T06:48:50.969Z,34.50
2022-11-29T06:53:50.883Z,34.70
2022-11-29T06:58:50.831Z,34.50
2022-11-29T07:03:50.690Z,36.80
2022-11-29T07:08:50.710Z,35.30
2022-11-29T07:13:50.604Z,33.60
2022-11-29T07:18:50.493Z,36.80
2022-11-29T07:23:50.484Z,33.50
2022-11-29T07:28:50.494Z,37.10
2022-11-29T07:33:50.415Z,35.30
2022-11-29T07:38:52.373Z,34.80
2022-11-29T07:43:50.252Z,36.60
2022-11-29T07:48:50.318Z,39.60
2022-11-29T07:53:50.140Z,35.30
2022-11-29T07:58:52.168Z,35.80
2022-11-29T08:03:50.043Z,36.70
2022-11-29T08:08:49.988Z,38.10
2022-11-29T08:13:50.996Z,39.10
2022-11-29T08:18:50.042Z,36.20
2022-11-29T08:23:50.806Z,33.10
2022-11-29T08:28:49.966Z,34.90
2022-11-29T08:33:49.767Z,38.90
2022-11-29T08:38:51.787Z,36.70
2022-11-29T08:43:50.568Z,35.60
2022-11-29T08:48:49.536Z,35.10
2022-11-29T08:53:49.461Z,36.70
2022-11-29T08:58:49.440Z,34.80
2022-11-29T09:03:49.435Z,34.50
2022-11-29T09:08:49.380Z,34.30
2022-11-29T09:13:49.402Z,35.30
2022-11-29T09:18:51.869Z,31.80
2022-11-29T09:23:49.151Z,36.70
2022-11-29T09:28:49.090Z,35.50
2022-11-29T09:33:49.029Z,34.20
2022-11-29T09:38:49.088Z,38.30
2022-11-29T09:43:49.990Z,38.30
2022-11-29T09:48:49.364Z,39.90
2022-11-29T09:53:49.017Z,35.60
2022-11-29T09:58:48.966Z,36.90
2022-11-29T10:03:48.795Z,34.20
2022-11-29T10:08:48.767Z,36.70
2022-11-29T10:13:48.703Z,36.90
2022-11-29T10:18:48.547Z,36.50
2022-11-29T10:23:48.554Z,30.30
2022-11-29T10:28:48.471Z,30.70
2022-11-29T10:33:49.617Z,26.40
2022-11-29T10:38:48.638Z,26.80
2022-11-29T10:43:48.456Z,24.30
2022-11-29T10:48:48.270Z,23.80
2022-11-29T10:53:48.255Z,24.80
2022-11-29T10:58:48.260Z,26.90
2022-11-29T11:03:52.651Z,26.70
2022-11-29T11:08:49.104Z,27.50
2022-11-29T11:13:50.043Z,48.70
2022-11-29T11:18:47.987Z,47.20
2022-11-29T11:23:47.997Z,47.90
2022-11-29T11:28:56.292Z,49.20
2022-11-29T11:33:47.697Z,48.50
2022-11-29T11:38:47.676Z,47.70
2022-11-29T11:43:49.621Z,49.70
2022-11-29T11:48:47.580Z,49.50
2022-11-29T11:53:47.506Z,46.60
2022-11-29T11:58:47.452Z,49.10
2022-11-29T12:03:47.404Z,56.10
2022-11-29T12:08:47.415Z,48.60
2022-11-29T12:13:47.284Z,48.40
2022-11-29T12:18:47.275Z,47.50
2022-11-29T12:23:47.181Z,48.10
2022-11-29T12:28:47.141Z,44.60
2022-11-29T12:33:47.207Z,43.90
2022-11-29T12:38:47.195Z,44.50
2022-11-29T12:43:47.064Z,47.30
2022-11-29T12:48:47.024Z,49.50
2022-11-29T12:53:46.973Z,47.40
2022-11-29T12:58:46.831Z,50.00
2022-11-29T13:03:46.753Z,51.50
2022-11-29T13:08:46.774Z,56.10
2022-11-29T13:13:47.753Z,58.50
2022-11-29T13:18:46.673Z,59.50
2022-11-29T13:24:07.728Z,63.70
2022-11-29T13:28:47.595Z,63.10
2022-11-29T13:33:46.403Z,67.00
2022-11-29T13:38:46.421Z,70.40
2022-11-29T13:43:46.294Z,69.20
2022-11-29T13:48:46.243Z,69.10
2022-11-29T13:53:49.186Z,69.60
2022-11-29T13:58:46.168Z,70.90
2022-11-29T14:03:46.109Z,68.90
2022-11-29T14:13:47.029Z,56.80
2022-11-29T14:18:45.960Z,58.60
2022-11-29T14:23:45.973Z,60.70
2022-11-29T14:28:45.904Z,63.60
2022-11-29T14:33:45.782Z,62.30
2022-11-29T14:38:45.726Z,59.00
2022-11-29T14:43:45.674Z,57.20
2022-11-29T14:48:45.676Z,50.40
2022-11-29T14:53:45.614Z,45.70
2022-11-29T14:58:45.519Z,46.80
2022-11-29T15:03:45.492Z,47.10
2022-11-29T15:08:45.416Z,49.80
2022-11-29T15:13:45.335Z,47.60
2022-11-29T15:18:45.295Z,54.60
2022-11-29T15:23:45.206Z,51.50
2022-11-29T15:28:45.186Z,50.90
2022-11-29T15:33:45.132Z,50.30
2022-11-29T15:38:45.026Z,48.70
2022-11-29T15:43:44.999Z,50.50
2022-11-29T15:48:44.935Z,42.90
2022-11-29T15:53:44.947Z,44.90
2022-11-29T15:58:44.809Z,43.40
2022-11-29T16:03:44.783Z,47.30
2022-11-29T16:08:44.702Z,45.40
2022-11-29T16:13:44.674Z,49.60
2022-11-29T16:18:44.636Z,46.80
2022-11-29T16:23:44.561Z,49.80
2022-11-29T16:28:44.516Z,52.20
2022-11-29T16:33:44.473Z,51.40
2022-11-29T16:38:44.393Z,51.60
2022-11-29T16:43:44.351Z,50.80
2022-11-29T16:48:44.273Z,48.60
2022-11-29T16:53:44.238Z,49.00
2022-11-29T16:59:25.439Z,49.00
2022-11-29T17:03:45.117Z,45.30
2022-11-29T17:08:44.060Z,47.60
2022-11-29T17:13:43.993Z,47.90
2022-11-29T17:18:43.964Z,48.80
2022-11-29T17:23:43.883Z,45.50
2022-11-29T17:28:52.162Z,43.30
2022-11-29T17:33:43.756Z,45.70
2022-11-29T17:38:43.765Z,43.80
2022-11-29T17:43:43.712Z,42.80
2022-11-29T17:48:43.689Z,40.40
2022-11-29T17:53:43.624Z,44.20
2022-11-29T17:58:43.518Z,41.10
2022-11-29T18:03:43.460Z,48.50
2022-11-29T18:08:43.414Z,47.20
2022-11-29T18:13:43.466Z,43.50
2022-11-29T18:18:43.324Z,43.50
2022-11-29T18:23:43.358Z,40.80
2022-11-29T18:28:43.253Z,43.90
2022-11-29T18:33:43.187Z,43.70
2022-11-29T18:38:43.115Z,40.50
2022-11-29T18:43:43.013Z,42.90
2022-11-29T18:48:43.009Z,41.40
2022-11-29T18:53:43.151Z,42.20
2022-11-29T18:58:42.907Z,43.90
2022-11-29T19:03:42.831Z,44.10
2022-11-29T19:08:42.931Z,41.70
2022-11-29T19:13:42.780Z,40.50
2022-11-29T19:18:42.714Z,44.60
2022-11-29T19:23:42.690Z,43.20
2022-11-29T19:28:42.571Z,41.40
2022-11-29T19:33:42.540Z,36.90
2022-11-29T19:38:43.328Z,39.30
2022-11-29T19:43:42.405Z,39.90
2022-11-29T19:48:42.362Z,43.20
2022-11-29T19:53:42.280Z,41.30
2022-11-29T19:58:42.208Z,42.10
2022-11-29T20:03:42.164Z,41.00
2022-11-29T20:08:42.187Z,40.80
2022-11-29T20:13:42.035Z,40.80
2022-11-29T20:18:47.123Z,40.00
2022-11-29T20:23:43.010Z,39.10
2022-11-29T20:28:41.958Z,40.50
2022-11-29T20:33:41.923Z,40.90
2022-11-29T20:38:41.859Z,40.60
2022-11-29T20:43:41.772Z,43.10
2022-11-29T20:48:41.691Z,44.10
2022-11-29T20:53:41.643Z,45.40
2022-11-29T20:58:42.581Z,45.60
2022-11-29T21:03:41.693Z,41.20
2022-11-29T21:08:41.565Z,43.00
2022-11-29T21:13:41.396Z,41.10
2022-11-29T21:18:41.342Z,42.90
2022-11-29T21:23:42.302Z,41.10
2022-11-29T21:28:41.156Z,40.40
2022-11-29T21:33:41.175Z,41.10
2022-11-29T21:38:41.166Z,44.20
2022-11-29T21:44:05.654Z,41.80
2022-11-29T21:48:42.005Z,44.30
2022-11-29T21:53:40.901Z,46.20
2022-11-29T21:58:40.934Z,51.00
2022-11-29T22:03:40.856Z,53.90
2022-11-29T22:08:40.826Z,49.80
2022-11-29T22:13:40.770Z,51.70
2022-11-29T22:18:40.698Z,53.00
2022-11-29T22:23:40.656Z,50.40
2022-11-29T22:28:40.537Z,52.00
2022-11-29T22:33:40.626Z,53.70
2022-11-29T22:38:40.515Z,55.10
2022-11-29T22:43:40.440Z,59.20
2022-11-29T22:48:40.335Z,58.70
2022-11-29T22:53:40.255Z,68.50
2022-11-29T22:58:40.204Z,64.80
2022-11-29T23:03:40.156Z,69.70
2022-11-29T23:08:40.151Z,77.00
2022-11-29T23:13:40.072Z,79.90
2022-11-29T23:18:43.429Z,87.50
2022-11-29T23:23:39.953Z,76.30
2022-11-29T23:28:39.874Z,82.80
2022-11-29T23:33:48.677Z,83.60
2022-11-29T23:38:39.724Z,84.80
2022-11-29T23:43:39.867Z,79.20
2022-11-29T23:48:39.649Z,96.40
2022-11-29T23:53:39.747Z,76.60
2022-11-29T23:58:39.556Z,85.50
